SLC weather

Salt Lake City International Airport
Salt Lake City, Utah, United States

Public forecast

Using degrees Fahrenheit for public forecast. Weather courtesy of forecast.io.

METAR (pilot weather report)

Retrieved 2019/04/23 08:54 UTC (54 minutes ago):

KSLC 230854Z 08003KT 10SM FEW060 09/06 A3015 RMK AO2 SLP187 T00940061 58003 $

TAF (pilot weather forecast)

Retrieved 2019/04/23 06:45 UTC (3 hours ago):

TAF KSLC 230543Z 2306/2412 26005KT P6SM FEW060 FM231000 15005KT P6SM SKC FM231600 31008KT P6SM SCT200 FM240300 15005KT P6SM SCT200